createdAt,value
2023-01-28T00:01:43.431Z,20.17
2023-01-28T00:04:12.618Z,21.70
2023-01-28T00:06:40.488Z,19.30
2023-01-28T00:09:08.443Z,20.43
2023-01-28T00:11:47.250Z,23.20
2023-01-28T00:14:15.077Z,22.00
2023-01-28T00:16:42.848Z,18.93
2023-01-28T00:19:12.382Z,20.43
2023-01-28T00:21:40.620Z,19.87
2023-01-28T00:24:09.619Z,17.93
2023-01-28T00:26:38.091Z,19.50
2023-01-28T00:29:06.581Z,19.23
2023-01-28T00:31:35.426Z,18.60
2023-01-28T00:34:03.317Z,22.03
2023-01-28T00:36:32.471Z,19.20
2023-01-28T00:39:02.389Z,20.53
2023-01-28T00:41:31.124Z,18.90
2023-01-28T00:44:00.171Z,17.30
2023-01-28T00:46:28.049Z,18.63
2023-01-28T00:48:56.039Z,19.50
2023-01-28T00:51:24.097Z,16.53
2023-01-28T00:53:53.990Z,18.83
2023-01-28T00:56:21.792Z,18.00
2023-01-28T00:58:50.259Z,18.20
2023-01-28T01:01:21.156Z,19.23
2023-01-28T01:03:54.395Z,17.20
2023-01-28T01:06:23.263Z,19.90
2023-01-28T01:08:51.169Z,21.80
2023-01-28T01:11:20.432Z,20.03
2023-01-28T01:13:52.148Z,19.83
2023-01-28T01:16:21.006Z,19.43
2023-01-28T01:18:52.177Z,19.53
2023-01-28T01:21:21.729Z,19.80
2023-01-28T01:23:49.510Z,22.90
2023-01-28T01:26:17.596Z,21.33
2023-01-28T01:28:46.916Z,20.73
2023-01-28T01:31:17.592Z,20.60
2023-01-28T01:33:46.727Z,19.83
2023-01-28T01:36:16.709Z,20.00
2023-01-28T01:38:45.491Z,19.90
2023-01-28T01:41:23.808Z,19.90
2023-01-28T01:43:55.447Z,18.50
2023-01-28T01:46:28.654Z,20.07
2023-01-28T01:48:59.067Z,20.70
2023-01-28T01:51:33.831Z,17.60
2023-01-28T01:54:02.158Z,20.30
2023-01-28T01:56:35.646Z,19.53
2023-01-28T01:59:05.754Z,18.70
2023-01-28T02:01:33.805Z,21.53
2023-01-28T02:04:08.326Z,19.20
2023-01-28T02:06:37.767Z,18.80
2023-01-28T02:09:08.569Z,18.80
2023-01-28T02:11:37.422Z,20.97
2023-01-28T02:14:07.778Z,19.30
2023-01-28T02:16:35.826Z,19.57
2023-01-28T02:19:03.617Z,18.67
2023-01-28T02:22:06.867Z,19.23
2023-01-28T02:25:06.243Z,21.37
2023-01-28T02:27:40.969Z,18.23
2023-01-28T02:30:17.370Z,21.07
2023-01-28T02:32:52.695Z,19.37
2023-01-28T02:35:34.179Z,17.70
2023-01-28T02:38:06.643Z,18.13
2023-01-28T02:40:57.475Z,18.63
2023-01-28T02:43:32.115Z,20.23
2023-01-28T02:46:21.476Z,20.23
2023-01-28T02:48:49.710Z,17.37
2023-01-28T02:51:28.807Z,19.07
2023-01-28T02:54:02.711Z,18.37
2023-01-28T02:56:36.637Z,17.93
2023-01-28T02:59:26.573Z,15.83
2023-01-28T03:02:04.989Z,18.23
2023-01-28T03:04:38.663Z,19.00
2023-01-28T03:07:09.424Z,19.27
2023-01-28T03:09:39.274Z,15.27
2023-01-28T03:12:27.538Z,17.13
2023-01-28T03:15:15.869Z,17.60
2023-01-28T03:18:05.768Z,17.43
2023-01-28T03:20:58.533Z,20.53
2023-01-28T03:23:50.715Z,18.50
2023-01-28T03:26:41.154Z,17.77
2023-01-28T03:29:31.789Z,19.03
2023-01-28T03:32:20.065Z,19.93
2023-01-28T03:35:06.963Z,19.40
2023-01-28T03:37:35.880Z,19.10
2023-01-28T03:40:19.389Z,21.00
2023-01-28T03:42:47.839Z,19.73
2023-01-28T03:45:34.856Z,18.20
2023-01-28T03:48:05.460Z,19.20
2023-01-28T03:50:35.375Z,20.90
2023-01-28T03:53:16.389Z,21.27
2023-01-28T03:55:50.844Z,19.07
2023-01-28T03:58:19.619Z,18.53
2023-01-28T04:00:47.833Z,19.23
2023-01-28T04:03:18.153Z,18.67
2023-01-28T04:06:02.027Z,20.47
2023-01-28T04:08:53.072Z,19.17
2023-01-28T04:11:39.664Z,20.03
2023-01-28T04:14:09.038Z,17.80
2023-01-28T04:16:58.981Z,19.87
2023-01-28T04:19:27.512Z,19.03
2023-01-28T04:21:58.055Z,18.57
2023-01-28T04:24:26.683Z,19.47
2023-01-28T04:26:56.478Z,18.53
2023-01-28T04:29:25.609Z,19.20
2023-01-28T04:31:56.333Z,17.70
2023-01-28T04:34:36.093Z,19.40
2023-01-28T04:37:15.371Z,19.37
2023-01-28T04:40:01.490Z,17.73
2023-01-28T04:42:43.569Z,18.40
2023-01-28T04:45:22.690Z,18.10
2023-01-28T04:48:08.445Z,15.73
2023-01-28T04:50:59.634Z,19.77
2023-01-28T04:53:48.161Z,17.83
2023-01-28T04:56:31.256Z,18.57
2023-01-28T04:58:59.036Z,16.67
2023-01-28T05:01:27.182Z,15.60
2023-01-28T05:03:54.918Z,18.10
2023-01-28T05:06:26.385Z,17.67
2023-01-28T05:09:07.553Z,18.27
2023-01-28T05:11:37.850Z,18.70
2023-01-28T05:14:06.882Z,16.53
2023-01-28T05:16:41.371Z,15.80
2023-01-28T05:19:09.437Z,16.33
2023-01-28T05:21:41.084Z,15.90
2023-01-28T05:24:18.016Z,16.50
2023-01-28T05:26:46.298Z,15.87
2023-01-28T05:29:14.176Z,16.40
2023-01-28T05:31:42.071Z,18.33
2023-01-28T05:34:10.554Z,16.83
2023-01-28T05:36:38.467Z,15.60
2023-01-28T05:39:19.453Z,14.07
2023-01-28T05:41:47.204Z,15.93
2023-01-28T05:44:15.109Z,16.37
2023-01-28T05:46:59.876Z,15.70
2023-01-28T05:49:47.993Z,15.83
2023-01-28T05:52:33.828Z,16.53
2023-01-28T05:55:03.971Z,17.20
2023-01-28T05:57:32.194Z,15.73
2023-01-28T06:00:00.129Z,14.93
2023-01-28T06:02:28.134Z,16.90
2023-01-28T06:04:58.517Z,16.87
2023-01-28T06:07:26.350Z,15.30
2023-01-28T06:09:54.119Z,18.43
2023-01-28T06:12:24.301Z,15.50
2023-01-28T06:15:14.315Z,13.47
2023-01-28T06:18:03.374Z,15.00
2023-01-28T06:20:34.845Z,15.07
2023-01-28T06:23:04.975Z,17.23
2023-01-28T06:25:33.106Z,14.97
2023-01-28T06:28:10.826Z,15.10
2023-01-28T06:30:38.681Z,16.10
2023-01-28T06:33:06.524Z,17.73
2023-01-28T06:35:34.370Z,13.00
2023-01-28T06:38:04.514Z,14.37
2023-01-28T06:40:32.440Z,14.73
2023-01-28T06:43:00.224Z,16.40
2023-01-28T06:45:29.459Z,14.73
2023-01-28T06:47:57.294Z,15.43
2023-01-28T06:50:25.448Z,17.20
2023-01-28T06:52:54.366Z,14.47
2023-01-28T06:55:22.206Z,14.87
2023-01-28T06:57:50.007Z,16.77
2023-01-28T07:00:19.131Z,15.83
2023-01-28T07:02:48.341Z,13.30
2023-01-28T07:05:16.306Z,14.17
2023-01-28T07:07:44.749Z,13.20
2023-01-28T07:10:12.906Z,14.50
2023-01-28T07:12:41.155Z,14.83
2023-01-28T07:15:10.900Z,13.77
2023-01-28T07:17:40.606Z,13.47
2023-01-28T07:20:13.216Z,14.43
2023-01-28T07:22:42.811Z,14.37
2023-01-28T07:25:14.261Z,15.70
2023-01-28T07:27:47.967Z,15.33
2023-01-28T07:30:16.896Z,13.57
2023-01-28T07:32:45.618Z,14.23
2023-01-28T07:35:15.965Z,15.10
2023-01-28T07:37:43.758Z,14.50
2023-01-28T07:40:13.075Z,14.67
2023-01-28T07:42:41.024Z,15.93
2023-01-28T07:45:11.705Z,14.60
2023-01-28T07:47:39.531Z,14.53
2023-01-28T07:50:09.473Z,15.87
2023-01-28T07:52:44.363Z,16.17
2023-01-28T07:55:15.512Z,15.43
2023-01-28T07:57:53.738Z,15.67
2023-01-28T08:00:22.844Z,15.53
2023-01-28T08:02:51.496Z,15.50
2023-01-28T08:05:21.283Z,14.17
2023-01-28T08:07:50.630Z,13.97
2023-01-28T08:10:19.327Z,16.50
2023-01-28T08:12:54.435Z,14.73
2023-01-28T08:15:22.733Z,15.47
2023-01-28T08:17:50.611Z,18.90
2023-01-28T08:20:18.831Z,15.80
2023-01-28T08:22:46.622Z,15.87
2023-01-28T08:25:16.106Z,17.37
2023-01-28T08:27:43.930Z,15.13
2023-01-28T08:30:13.225Z,17.37
2023-01-28T08:32:41.341Z,14.30
2023-01-28T08:35:09.763Z,15.43
2023-01-28T08:37:37.534Z,16.47
2023-01-28T08:40:06.357Z,12.93
2023-01-28T08:42:35.426Z,14.10
2023-01-28T08:45:03.832Z,14.63
2023-01-28T08:47:31.660Z,16.73
2023-01-28T08:49:59.565Z,15.03
2023-01-28T08:52:27.465Z,16.20
2023-01-28T08:54:55.217Z,15.90
2023-01-28T08:57:22.985Z,18.33
2023-01-28T08:59:54.278Z,16.83
2023-01-28T09:02:31.166Z,17.10
2023-01-28T09:04:59.897Z,17.37
2023-01-28T09:07:27.776Z,16.47
2023-01-28T09:09:55.751Z,15.93
2023-01-28T09:12:23.649Z,15.10
2023-01-28T09:14:52.121Z,14.50
2023-01-28T09:17:21.459Z,17.87
2023-01-28T09:19:50.257Z,13.80
2023-01-28T09:22:30.357Z,16.40
2023-01-28T09:25:00.284Z,15.93
2023-01-28T09:27:28.136Z,15.47
2023-01-28T09:29:56.989Z,16.40
2023-01-28T09:32:26.261Z,16.03
2023-01-28T09:34:54.091Z,15.97
2023-01-28T09:37:21.877Z,17.50
2023-01-28T09:39:49.629Z,16.80
2023-01-28T09:42:32.797Z,14.77
2023-01-28T09:45:07.807Z,15.37
2023-01-28T09:47:42.289Z,16.67
2023-01-28T09:50:16.719Z,18.90
2023-01-28T09:52:49.770Z,20.20
2023-01-28T09:55:34.606Z,16.70
2023-01-28T09:58:02.841Z,16.97
2023-01-28T10:00:40.405Z,17.73
2023-01-28T10:03:25.167Z,17.13
2023-01-28T10:06:03.843Z,16.73
2023-01-28T10:08:45.146Z,16.13
2023-01-28T10:11:24.262Z,16.20
2023-01-28T10:14:01.438Z,14.37
2023-01-28T10:16:37.480Z,16.47
2023-01-28T10:19:12.175Z,15.60
2023-01-28T10:21:44.798Z,15.50
2023-01-28T10:24:19.686Z,14.87
2023-01-28T10:26:47.591Z,12.63
2023-01-28T10:29:18.820Z,14.93
2023-01-28T10:31:53.757Z,14.73
2023-01-28T10:34:24.061Z,15.13
2023-01-28T10:36:53.281Z,14.30
2023-01-28T10:39:24.698Z,15.10
2023-01-28T10:41:58.183Z,14.33
2023-01-28T10:44:33.855Z,13.40
2023-01-28T10:47:05.929Z,13.03
2023-01-28T10:49:42.995Z,14.70
2023-01-28T10:52:14.726Z,15.53
2023-01-28T10:54:42.641Z,14.20
2023-01-28T10:57:14.124Z,12.63
2023-01-28T11:00:07.592Z,13.97
2023-01-28T11:02:37.309Z,14.47
2023-01-28T11:05:17.596Z,12.83
2023-01-28T11:07:46.097Z,12.90
2023-01-28T11:10:36.881Z,15.07
2023-01-28T11:13:06.672Z,13.40
2023-01-28T11:15:34.580Z,12.70
2023-01-28T11:18:06.222Z,12.67
2023-01-28T11:20:39.812Z,12.47
2023-01-28T11:23:07.897Z,13.80
2023-01-28T11:25:38.437Z,13.30
2023-01-28T11:28:16.729Z,14.20
2023-01-28T11:30:44.562Z,11.70
2023-01-28T11:33:18.246Z,13.73
2023-01-28T11:35:56.542Z,12.83
2023-01-28T11:38:26.275Z,13.97
2023-01-28T11:40:55.521Z,13.23
2023-01-28T11:43:25.082Z,11.03
2023-01-28T11:46:05.312Z,13.80
2023-01-28T11:48:44.179Z,11.97
2023-01-28T11:51:23.701Z,12.30
2023-01-28T11:54:05.108Z,12.10
2023-01-28T11:56:55.088Z,12.10
2023-01-28T11:59:32.800Z,15.07
2023-01-28T12:02:16.335Z,13.10
2023-01-28T12:05:05.061Z,12.03
2023-01-28T12:07:46.508Z,11.93
2023-01-28T12:10:20.800Z,13.20
2023-01-28T12:13:10.798Z,12.93
2023-01-28T12:16:01.383Z,11.93
2023-01-28T12:18:42.849Z,12.23
2023-01-28T12:21:18.324Z,12.07
2023-01-28T12:24:02.938Z,11.90
2023-01-28T12:26:41.928Z,10.90
2023-01-28T12:29:24.097Z,10.80
2023-01-28T12:32:17.399Z,12.30
2023-01-28T12:35:12.106Z,13.13
2023-01-28T12:37:52.978Z,11.67
2023-01-28T12:40:39.250Z,13.20
2023-01-28T12:43:41.308Z,10.37
2023-01-28T12:46:17.729Z,11.73
2023-01-28T12:48:50.879Z,10.77
2023-01-28T12:51:24.983Z,10.87
2023-01-28T12:53:58.594Z,12.47
2023-01-28T12:56:36.493Z,12.93
2023-01-28T12:59:11.366Z,12.97
2023-01-28T13:01:52.702Z,13.17
2023-01-28T13:04:32.542Z,11.67
2023-01-28T13:07:28.700Z,11.93
2023-01-28T13:10:04.575Z,12.10
2023-01-28T13:12:34.875Z,12.50
2023-01-28T13:15:13.130Z,12.23
2023-01-28T13:17:42.023Z,11.40
2023-01-28T13:20:16.488Z,12.87
2023-01-28T13:22:46.258Z,12.33
2023-01-28T13:25:21.303Z,11.73
2023-01-28T13:28:02.693Z,9.70
2023-01-28T13:30:34.348Z,11.03
2023-01-28T13:33:05.801Z,10.73
2023-01-28T13:35:43.858Z,9.37
2023-01-28T13:38:20.624Z,10.43
2023-01-28T13:40:56.883Z,11.30
2023-01-28T13:44:20.452Z,11.53
2023-01-28T13:46:49.661Z,10.50
2023-01-28T13:49:22.495Z,10.07
2023-01-28T13:52:00.634Z,9.37
2023-01-28T13:54:32.020Z,9.60
2023-01-28T13:57:21.764Z,10.70
2023-01-28T13:59:58.134Z,11.87
2023-01-28T14:03:07.262Z,11.40
2023-01-28T14:05:59.389Z,10.90
2023-01-28T14:08:46.183Z,13.93
2023-01-28T14:11:32.054Z,17.67
2023-01-28T14:14:25.307Z,11.47
2023-01-28T14:16:57.870Z,11.03
2023-01-28T14:23:54.708Z,13.40
2023-01-28T14:26:33.127Z,13.37
2023-01-28T14:29:17.322Z,13.43
2023-01-28T14:31:45.408Z,12.87
2023-01-28T14:34:21.306Z,14.80
2023-01-28T14:36:50.550Z,12.37
2023-01-28T14:39:23.890Z,13.57
2023-01-28T14:42:00.639Z,12.93
2023-01-28T14:44:33.025Z,12.87
2023-01-28T14:47:33.569Z,14.27
2023-01-28T14:50:19.043Z,13.63
2023-01-28T14:53:01.580Z,15.60
2023-01-28T14:55:38.261Z,13.37
2023-01-28T14:58:11.032Z,13.90
2023-01-28T15:00:39.640Z,14.10
2023-01-28T15:03:24.894Z,14.80
2023-01-28T15:06:03.849Z,12.23
2023-01-28T15:08:32.481Z,12.60
2023-01-28T15:11:03.268Z,13.03
2023-01-28T15:13:34.937Z,13.80
2023-01-28T15:16:03.078Z,12.43
2023-01-28T15:18:35.051Z,11.63
2023-01-28T15:21:03.548Z,13.30
2023-01-28T15:23:34.706Z,13.93
2023-01-28T15:26:08.083Z,14.10
2023-01-28T15:28:39.292Z,15.00
2023-01-28T15:31:07.778Z,15.57
2023-01-28T15:33:35.656Z,14.73
2023-01-28T15:36:03.745Z,16.03
2023-01-28T15:38:31.558Z,16.13
2023-01-28T15:41:01.896Z,14.13
2023-01-28T15:43:34.539Z,14.53
2023-01-28T15:46:02.547Z,14.37
2023-01-28T15:48:32.496Z,15.03
2023-01-28T15:51:03.041Z,17.33
2023-01-28T15:53:35.484Z,17.73
2023-01-28T15:56:08.789Z,17.27
2023-01-28T15:58:41.717Z,17.00
2023-01-28T16:01:19.465Z,14.60
2023-01-28T16:03:54.244Z,16.73
2023-01-28T16:06:23.606Z,13.40
2023-01-28T16:08:56.777Z,15.63
2023-01-28T16:11:30.209Z,16.50
2023-01-28T16:14:02.166Z,15.43
2023-01-28T16:16:48.407Z,16.40
2023-01-28T16:19:26.586Z,16.10
2023-01-28T16:21:54.462Z,18.17
2023-01-28T16:24:26.199Z,20.03
2023-01-28T16:26:58.332Z,18.97
2023-01-28T16:29:30.822Z,18.63
2023-01-28T16:32:00.605Z,17.70
2023-01-28T16:34:28.845Z,18.67
2023-01-28T16:36:59.995Z,16.47
2023-01-28T16:39:27.825Z,19.20
2023-01-28T16:41:56.940Z,18.30
2023-01-28T16:44:24.792Z,24.50
2023-01-28T16:46:54.026Z,22.70
2023-01-28T16:49:22.049Z,24.23
2023-01-28T16:51:49.988Z,20.60
2023-01-28T16:54:17.984Z,20.13
2023-01-28T16:56:46.983Z,19.90
2023-01-28T16:59:16.365Z,21.93
2023-01-28T17:01:44.456Z,18.97
2023-01-28T17:04:14.412Z,22.27
2023-01-28T17:06:44.548Z,23.93
2023-01-28T17:09:13.186Z,22.83
2023-01-28T17:11:41.331Z,20.83
2023-01-28T17:14:09.295Z,22.50
2023-01-28T17:16:37.715Z,23.40
2023-01-28T17:19:05.795Z,22.10
2023-01-28T17:21:34.983Z,23.60
2023-01-28T17:24:03.282Z,23.43
2023-01-28T17:26:31.583Z,24.83
2023-01-28T17:28:59.480Z,24.13
2023-01-28T17:31:27.603Z,21.50
2023-01-28T17:34:08.396Z,24.30
2023-01-28T17:36:37.626Z,24.27
2023-01-28T17:39:07.388Z,25.07
2023-01-28T17:41:35.475Z,22.17
2023-01-28T17:44:06.102Z,21.00
2023-01-28T17:46:34.517Z,23.30
2023-01-28T17:49:02.848Z,24.47
2023-01-28T17:51:31.386Z,21.67
2023-01-28T17:54:00.668Z,22.40
2023-01-28T17:56:30.453Z,26.17
2023-01-28T17:59:02.155Z,25.07
2023-01-28T18:01:31.552Z,20.83
2023-01-28T18:04:00.186Z,20.83
2023-01-28T18:06:31.368Z,18.87
2023-01-28T18:09:00.891Z,21.30
2023-01-28T18:11:29.866Z,22.43
2023-01-28T18:13:57.787Z,22.30
2023-01-28T18:16:25.835Z,26.00
2023-01-28T18:18:53.703Z,24.37
2023-01-28T18:21:34.734Z,22.53
2023-01-28T18:24:10.706Z,23.60
2023-01-28T18:26:38.873Z,21.93
2023-01-28T18:29:06.950Z,24.33
2023-01-28T18:31:34.961Z,24.40
2023-01-28T18:34:03.528Z,24.07
2023-01-28T18:36:31.346Z,19.40
2023-01-28T18:38:59.186Z,22.10
2023-01-28T18:41:28.400Z,21.27
2023-01-28T18:43:56.198Z,19.67
2023-01-28T18:46:24.012Z,23.00
2023-01-28T18:48:51.761Z,18.57
2023-01-28T18:51:29.912Z,18.23
2023-01-28T18:53:59.199Z,19.10
2023-01-28T18:56:28.815Z,17.93
2023-01-28T18:58:57.481Z,17.83
2023-01-28T19:01:25.468Z,17.93
2023-01-28T19:03:54.792Z,16.83
2023-01-28T19:06:22.578Z,18.07
2023-01-28T19:08:53.696Z,14.43
2023-01-28T19:11:21.954Z,14.53
2023-01-28T19:13:51.785Z,15.93
2023-01-28T19:16:20.424Z,21.00
2023-01-28T19:18:52.663Z,15.10
2023-01-28T19:21:20.495Z,16.20
2023-01-28T19:23:50.397Z,15.67
2023-01-28T19:26:21.292Z,15.33
2023-01-28T19:28:51.195Z,14.53
2023-01-28T19:31:19.684Z,13.83
2023-01-28T19:33:48.190Z,13.93
2023-01-28T19:36:16.659Z,14.50
2023-01-28T19:38:44.851Z,13.43
2023-01-28T19:41:16.105Z,14.40
2023-01-28T19:43:45.022Z,12.37
2023-01-28T19:46:17.653Z,13.97
2023-01-28T19:48:46.332Z,11.00
2023-01-28T19:51:15.816Z,13.07
2023-01-28T19:53:44.726Z,12.60
2023-01-28T19:56:15.137Z,13.10
2023-01-28T19:58:45.099Z,14.63
2023-01-28T20:01:17.192Z,13.67
2023-01-28T20:03:46.017Z,12.40
2023-01-28T20:06:30.174Z,11.60
2023-01-28T20:09:00.053Z,13.20
2023-01-28T20:11:28.311Z,13.93
2023-01-28T20:14:00.742Z,13.43
2023-01-28T20:16:32.507Z,12.40
2023-01-28T20:19:01.757Z,12.87
2023-01-28T20:21:32.212Z,12.13
2023-01-28T20:24:01.546Z,13.43
2023-01-28T20:26:33.892Z,13.93
2023-01-28T20:29:02.546Z,15.23
2023-01-28T20:31:32.671Z,12.33
2023-01-28T20:34:01.435Z,14.03
2023-01-28T20:36:29.252Z,14.93
2023-01-28T20:38:57.144Z,14.43
2023-01-28T20:41:26.332Z,13.67
2023-01-28T20:43:55.831Z,13.27
2023-01-28T20:46:26.231Z,14.30
2023-01-28T20:48:58.431Z,13.10
2023-01-28T20:51:34.627Z,13.07
2023-01-28T20:54:03.657Z,12.97
2023-01-28T20:56:31.999Z,13.80
2023-01-28T20:59:05.960Z,15.70
2023-01-28T21:01:36.436Z,15.03
2023-01-28T21:04:07.265Z,13.73
2023-01-28T21:06:36.525Z,17.53
2023-01-28T21:09:05.939Z,14.17
2023-01-28T21:11:33.852Z,13.10
2023-01-28T21:14:01.759Z,13.23
2023-01-28T21:16:29.801Z,12.80
2023-01-28T21:18:57.661Z,11.93
2023-01-28T21:21:28.754Z,14.40
2023-01-28T21:23:57.912Z,15.23
2023-01-28T21:26:26.007Z,14.37
2023-01-28T21:28:53.928Z,13.57
2023-01-28T21:31:24.996Z,13.83
2023-01-28T21:33:55.007Z,13.27
2023-01-28T21:36:24.021Z,15.30
2023-01-28T21:38:55.038Z,12.40
2023-01-28T21:41:23.083Z,13.70
2023-01-28T21:43:52.153Z,12.83
2023-01-28T21:46:20.080Z,14.83
2023-01-28T21:48:55.835Z,14.00
2023-01-28T21:51:39.123Z,13.33
2023-01-28T21:54:12.869Z,12.37
2023-01-28T21:56:40.756Z,13.10
2023-01-28T21:59:26.125Z,13.23
2023-01-28T22:01:54.028Z,13.67
2023-01-28T22:04:22.182Z,14.43
2023-01-28T22:06:50.029Z,12.37
2023-01-28T22:09:19.305Z,12.97
2023-01-28T22:11:47.315Z,13.77
2023-01-28T22:14:15.674Z,13.60
2023-01-28T22:16:44.161Z,12.37
2023-01-28T22:19:12.413Z,12.80
2023-01-28T22:21:47.636Z,11.40
2023-01-28T22:24:17.292Z,12.77
2023-01-28T22:26:47.879Z,14.37
2023-01-28T22:29:17.154Z,20.23
2023-01-28T22:31:49.529Z,16.03
2023-01-28T22:34:18.379Z,15.57
2023-01-28T22:36:47.218Z,15.60
2023-01-28T22:39:16.803Z,16.87
2023-01-28T22:41:46.858Z,16.90
2023-01-28T22:44:14.777Z,14.53
2023-01-28T22:46:42.703Z,15.00
2023-01-28T22:49:11.661Z,13.10
2023-01-28T22:51:39.489Z,16.43
2023-01-28T22:54:07.302Z,14.27
2023-01-28T22:56:35.115Z,13.67
2023-01-28T22:59:05.003Z,11.53
2023-01-28T23:01:33.759Z,11.70
2023-01-28T23:04:01.610Z,15.20
2023-01-28T23:06:30.056Z,13.33
2023-01-28T23:08:57.915Z,11.50
2023-01-28T23:11:27.450Z,11.87
2023-01-28T23:14:14.707Z,11.80
2023-01-28T23:17:02.455Z,11.93
2023-01-28T23:19:48.107Z,9.93
2023-01-28T23:22:35.949Z,9.60
2023-01-28T23:25:03.813Z,10.70
2023-01-28T23:27:34.019Z,10.30
2023-01-28T23:30:02.086Z,9.87
2023-01-28T23:32:31.434Z,10.63
2023-01-28T23:34:59.269Z,11.87
2023-01-28T23:37:27.115Z,10.93
2023-01-28T23:39:54.896Z,10.80
2023-01-28T23:42:23.553Z,12.13
2023-01-28T23:44:51.415Z,11.70
2023-01-28T23:47:19.433Z,11.77
2023-01-28T23:49:48.617Z,10.53
2023-01-28T23:52:16.467Z,12.57
2023-01-28T23:54:44.470Z,10.73
2023-01-28T23:58:09.225Z,10.47
